Time;durP1;ratioP1;P1;durP2;ratioP2;P2;SDS_P1;SDS_P2;PMS_P1;PMS_P2;Temp;Humidity;BMP_temperature;BMP_pressure;BME280_temperature;BME280_humidity;BME280_pressure;Samples;Min_cycle;Max_cycle;Signal;HPM_P1;HPM_P2
2022/03/05 00:00:56;;;;;;;49.58;27.05;;;26.00;2201.60;;;;;;5066759;28;20035;-71
2022/03/05 00:03:24;;;;;;;48.95;28.92;;;26.00;2201.60;;;;;;5064907;28;20033;-71
2022/03/05 00:05:50;;;;;;;58.58;26.80;;;25.90;2201.60;;;;;;5067931;28;20051;-71
2022/03/05 00:08:16;;;;;;;56.97;30.55;;;25.80;2201.60;;;;;;5069808;28;20355;-71
2022/03/05 00:10:42;;;;;;;49.60;26.60;;;25.80;2201.60;;;;;;5065911;28;20016;-71
2022/03/05 00:13:08;;;;;;;46.03;25.88;;;25.80;2201.60;;;;;;5062830;28;20438;-71
2022/03/05 00:15:34;;;;;;;49.88;25.05;;;25.70;2201.60;;;;;;5064495;28;20028;-71
2022/03/05 00:18:06;;;;;;;50.65;24.48;;;25.60;2201.60;;;;;;5069725;28;20047;-71
2022/03/05 00:20:32;;;;;;;50.75;24.70;;;0.90;2201.60;;;;;;5064302;28;20130;-71
2022/03/05 00:22:58;;;;;;;42.35;24.58;;;0.90;2201.60;;;;;;5065688;28;20480;-71
2022/03/05 00:25:26;;;;;;;48.30;22.35;;;0.90;2201.60;;;;;;5063479;28;20036;-71
2022/03/05 00:27:53;;;;;;;45.15;23.42;;;0.80;2201.60;;;;;;5066077;28;20025;-71
2022/03/05 00:30:19;;;;;;;53.05;24.40;;;0.80;2201.60;;;;;;5066183;28;20131;-71
2022/03/05 00:33:07;;;;;;;47.28;24.80;;;0.70;2201.60;;;;;;5064941;28;20027;-71
2022/03/05 00:35:33;;;;;;;41.13;22.30;;;0.70;2201.60;;;;;;5068658;28;20035;-71
2022/03/05 00:37:59;;;;;;;49.20;23.10;;;0.70;2201.60;;;;;;5069047;28;20127;-71
2022/03/05 00:40:25;;;;;;;48.88;24.08;;;0.70;2201.60;;;;;;5063079;28;20033;-71
2022/03/05 00:42:54;;;;;;;42.17;21.83;;;0.60;2201.60;;;;;;5067586;28;20028;-70
2022/03/05 00:45:20;;;;;;;47.80;24.48;;;0.60;2201.60;;;;;;5069534;28;20032;-70
2022/03/05 00:47:45;;;;;;;46.17;23.00;;;0.60;2201.60;;;;;;5062762;28;20034;-71
2022/03/05 00:50:11;;;;;;;51.63;23.95;;;0.60;2201.60;;;;;;5062235;28;20044;-71
2022/03/05 00:52:37;;;;;;;50.53;25.17;;;0.70;2201.60;;;;;;5063372;28;20028;-71
2022/03/05 00:55:05;;;;;;;41.97;23.67;;;0.70;2201.60;;;;;;5067478;28;20025;-70
2022/03/05 00:57:30;;;;;;;43.15;24.60;;;0.70;2201.60;;;;;;5056260;28;20086;-70
2022/03/05 00:59:56;;;;;;;47.28;24.35;;;0.60;2201.60;;;;;;5062505;28;20467;-70
2022/03/05 01:02:22;;;;;;;46.83;24.90;;;0.60;2201.60;;;;;;5064993;28;20032;-71
2022/03/05 01:04:48;;;;;;;45.42;24.23;;;0.50;2201.60;;;;;;5059560;28;20044;-70
2022/03/05 01:07:14;;;;;;;44.88;25.70;;;0.50;2201.60;;;;;;5062568;28;20024;-70
2022/03/05 01:09:40;;;;;;;46.22;24.40;;;0.50;2201.60;;;;;;5067806;28;20090;-71
2022/03/05 01:12:06;;;;;;;50.92;23.45;;;0.50;2201.60;;;;;;5066568;28;20017;-70
2022/03/05 01:14:32;;;;;;;49.72;25.45;;;0.50;2201.60;;;;;;5064619;28;20029;-70
2022/03/05 01:16:57;;;;;;;47.72;26.05;;;0.40;2201.60;;;;;;5063939;28;20158;-70
2022/03/05 01:19:23;;;;;;;45.90;26.00;;;0.40;2201.60;;;;;;5065629;28;20035;-71
2022/03/05 01:21:49;;;;;;;53.17;26.10;;;0.40;2201.60;;;;;;5067714;28;20490;-70
2022/03/05 01:24:15;;;;;;;56.00;26.63;;;0.40;2201.60;;;;;;5064762;28;20024;-70
2022/03/05 01:26:40;;;;;;;50.30;25.10;;;0.40;2201.60;;;;;;5066389;28;20053;-71
2022/03/05 01:29:09;;;;;;;49.63;25.42;;;0.40;2201.60;;;;;;5067680;28;20381;-71
2022/03/05 01:31:36;;;;;;;55.45;23.95;;;0.40;2201.60;;;;;;5067913;28;20429;-71
2022/03/05 01:34:11;;;;;;;48.60;25.33;;;0.40;2201.60;;;;;;5060070;28;20032;-70
2022/03/05 01:36:39;;;;;;;50.25;25.85;;;0.30;2201.60;;;;;;5065703;28;20021;-70
2022/03/05 01:39:05;;;;;;;45.78;26.35;;;0.30;2201.60;;;;;;5060033;28;20040;-70
2022/03/05 01:41:31;;;;;;;44.97;23.75;;;0.30;2201.60;;;;;;5064585;28;20043;-70
2022/03/05 01:44:00;;;;;;;44.70;23.98;;;0.20;2201.60;;;;;;5061358;28;20021;-71
2022/03/05 01:46:36;;;;;;;48.72;25.90;;;0.20;2201.60;;;;;;5066939;28;20029;-71
2022/03/05 01:49:04;;;;;;;49.25;23.75;;;0.20;2201.60;;;;;;5060565;28;20012;-71
2022/03/05 01:51:30;;;;;;;50.80;24.70;;;0.10;2201.60;;;;;;5065389;28;20060;-70
2022/03/05 01:53:56;;;;;;;40.83;22.52;;;0.10;2201.60;;;;;;5065896;28;20472;-70
2022/03/05 01:56:27;;;;;;;42.97;22.83;;;0.10;2201.60;;;;;;5068500;28;20035;-71
2022/03/05 01:58:53;;;;;;;45.05;23.80;;;0.10;2201.60;;;;;;5061121;28;20111;-70
2022/03/05 02:01:24;;;;;;;40.20;22.90;;;0.10;2201.60;;;;;;5060706;28;20163;-70
2022/03/05 02:03:51;;;;;;;41.25;23.30;;;0.00;2201.60;;;;;;5061769;28;20033;-70
2022/03/05 02:06:17;;;;;;;45.63;22.02;;;0.00;2201.60;;;;;;5060121;28;20029;-71
2022/03/05 02:08:43;;;;;;;37.45;22.85;;;0.00;2201.60;;;;;;5063330;28;20017;-71
2022/03/05 02:11:09;;;;;;;38.47;22.00;;;0.00;2201.60;;;;;;5057968;28;20480;-71
2022/03/05 02:13:36;;;;;;;42.53;21.67;;;12.90;2201.60;;;;;;5064202;28;20104;-71
2022/03/05 02:16:02;;;;;;;36.58;21.60;;;12.90;2201.60;;;;;;5055421;28;20028;-70
2022/03/05 02:18:31;;;;;;;44.13;21.80;;;13.00;2201.60;;;;;;5056074;28;20021;-70
2022/03/05 02:20:57;;;;;;;39.03;20.30;;;13.00;2201.60;;;;;;5060723;28;20547;-71
2022/03/05 02:23:23;;;;;;;39.55;20.85;;;13.00;2201.60;;;;;;5066098;28;20143;-71
2022/03/05 02:25:56;;;;;;;42.58;21.35;;;13.00;2201.60;;;;;;5060220;28;20096;-70
2022/03/05 02:28:24;;;;;;;38.03;21.38;;;13.10;2201.60;;;;;;5056180;28;20029;-70
2022/03/05 02:30:53;;;;;;;43.05;21.85;;;13.10;2201.60;;;;;;5064611;28;20538;-70
2022/03/05 02:33:20;;;;;;;41.60;22.20;;;13.10;2201.60;;;;;;5063257;28;20039;-71
2022/03/05 02:35:49;;;;;;;43.42;23.48;;;13.10;2201.60;;;;;;5057866;28;20028;-71
2022/03/05 02:38:20;;;;;;;36.47;19.90;;;13.10;2201.60;;;;;;5065629;28;20182;-70
2022/03/05 02:40:47;;;;;;;40.70;20.98;;;13.20;2201.60;;;;;;5065432;28;20021;-70
2022/03/05 02:43:13;;;;;;;46.53;21.65;;;13.20;2201.60;;;;;;5055846;28;20020;-71
2022/03/05 02:45:39;;;;;;;44.40;24.50;;;13.20;2201.60;;;;;;5062137;28;20059;-71
2022/03/05 02:48:11;;;;;;;35.10;21.08;;;13.20;2201.60;;;;;;5064153;28;20048;-70
2022/03/05 02:50:37;;;;;;;54.38;25.23;;;13.10;2201.60;;;;;;5065017;28;20031;-71
2022/03/05 02:53:03;;;;;;;39.22;21.13;;;13.20;2201.60;;;;;;5060243;28;20471;-71
2022/03/05 02:55:30;;;;;;;37.25;20.05;;;13.10;2201.60;;;;;;5064198;28;20134;-70
2022/03/05 02:57:56;;;;;;;44.05;21.48;;;13.10;2201.60;;;;;;5058461;28;20021;-70
2022/03/05 03:00:22;;;;;;;40.55;20.95;;;13.10;2201.60;;;;;;5064846;28;20043;-70
2022/03/05 03:02:49;;;;;;;41.17;22.02;;;13.20;2201.60;;;;;;5062163;28;20456;-70
2022/03/05 03:05:16;;;;;;;38.50;20.20;;;13.20;2201.60;;;;;;5064471;28;20414;-71
2022/03/05 03:07:42;;;;;;;41.90;23.55;;;13.30;2201.60;;;;;;5058808;28;20498;-70
2022/03/05 03:10:09;;;;;;;42.00;21.17;;;13.40;2201.60;;;;;;5065680;28;20124;-71
2022/03/05 03:12:35;;;;;;;40.50;20.70;;;13.30;2201.60;;;;;;5059129;28;20029;-70
2022/03/05 03:15:01;;;;;;;46.15;21.50;;;13.40;2201.60;;;;;;5065805;28;20024;-71
2022/03/05 03:17:27;;;;;;;45.35;24.35;;;13.50;2201.60;;;;;;5067280;28;20028;-70
2022/03/05 03:19:56;;;;;;;49.10;24.35;;;13.50;2201.60;;;;;;5058340;28;20028;-71
2022/03/05 03:22:21;;;;;;;43.30;23.27;;;13.50;2201.60;;;;;;5066486;28;20702;-70
2022/03/05 03:24:47;;;;;;;45.33;23.38;;;13.50;2201.60;;;;;;5063476;28;20024;-71
2022/03/05 03:27:13;;;;;;;45.88;22.38;;;13.40;2201.60;;;;;;5058836;28;20155;-70
2022/03/05 03:29:39;;;;;;;46.17;22.48;;;13.30;2201.60;;;;;;5060955;28;20482;-71
2022/03/05 03:32:05;;;;;;;38.42;20.77;;;13.30;2201.60;;;;;;5058202;28;20447;-70
2022/03/05 03:34:34;;;;;;;44.30;23.80;;;13.20;2201.60;;;;;;5064877;28;20071;-71
2022/03/05 03:37:00;;;;;;;44.83;23.20;;;13.20;2201.60;;;;;;5064918;28;20476;-70
2022/03/05 03:39:26;;;;;;;40.25;21.35;;;13.20;2201.60;;;;;;5066677;28;20049;-70
2022/03/05 03:41:51;;;;;;;46.78;22.45;;;13.20;2201.60;;;;;;5065369;28;20088;-71
2022/03/05 03:44:17;;;;;;;41.50;22.00;;;13.10;2201.60;;;;;;5072619;28;20012;-71
2022/03/05 03:46:43;;;;;;;43.25;23.33;;;13.10;2201.60;;;;;;5069984;28;20056;-70
2022/03/05 03:49:08;;;;;;;38.03;21.33;;;13.10;2201.60;;;;;;5080296;28;20024;-70
2022/03/05 03:51:37;;;;;;;38.78;21.35;;;13.10;2201.60;;;;;;5058633;28;20999;-70
2022/03/05 03:54:03;;;;;;;44.20;21.85;;;13.10;2201.60;;;;;;5066269;28;20017;-70
2022/03/05 03:56:29;;;;;;;36.10;20.17;;;13.10;2201.60;;;;;;5072490;28;20050;-71
2022/03/05 03:59:00;;;;;;;47.38;23.77;;;13.10;2201.60;;;;;;5068467;28;20029;-70
2022/03/05 04:01:26;;;;;;;47.15;22.75;;;13.20;2201.60;;;;;;5065433;28;20068;-70
2022/03/05 04:03:52;;;;;;;50.45;24.08;;;13.40;2201.60;;;;;;5065883;28;20044;-70
2022/03/05 04:06:18;;;;;;;47.45;26.05;;;13.40;2201.60;;;;;;5060112;28;20516;-71
2022/03/05 04:08:43;;;;;;;41.92;21.13;;;13.40;2201.60;;;;;;5066756;28;20659;-70
2022/03/05 04:11:16;;;;;;;39.65;20.63;;;13.30;2201.60;;;;;;5063811;28;20419;-70
2022/03/05 04:13:44;;;;;;;41.72;21.52;;;13.30;2201.60;;;;;;5070879;28;20024;-70
2022/03/05 04:16:10;;;;;;;43.63;22.42;;;13.30;2201.60;;;;;;5065280;28;20039;-70
2022/03/05 04:18:35;;;;;;;45.05;21.85;;;13.30;2201.60;;;;;;5063273;28;20506;-70
2022/03/05 04:21:01;;;;;;;46.00;21.23;;;13.20;2201.60;;;;;;5067865;28;20037;-70
2022/03/05 04:23:30;;;;;;;41.25;22.17;;;13.30;2201.60;;;;;;5066186;28;20029;-70
2022/03/05 04:25:56;;;;;;;48.92;22.45;;;13.30;2201.60;;;;;;5066466;28;20020;-70
2022/03/05 04:28:22;;;;;;;45.03;22.80;;;13.50;2201.60;;;;;;5057302;28;20075;-70
2022/03/05 04:30:51;;;;;;;43.88;22.80;;;13.50;2201.60;;;;;;5062725;28;20025;-70
2022/03/05 04:33:19;;;;;;;39.95;22.33;;;13.50;2201.60;;;;;;5067243;28;20379;-71
2022/03/05 04:35:45;;;;;;;38.42;23.63;;;13.50;2201.60;;;;;;5067241;28;20491;-71
2022/03/05 04:38:11;;;;;;;42.58;23.33;;;13.50;2201.60;;;;;;5062244;28;20083;-71
2022/03/05 04:40:36;;;;;;;45.65;25.00;;;13.50;2201.60;;;;;;5067047;28;20016;-71
2022/03/05 04:43:03;;;;;;;45.60;23.05;;;13.50;2201.60;;;;;;5066736;28;20027;-70
2022/03/05 04:45:29;;;;;;;41.90;21.55;;;13.50;2201.60;;;;;;5057730;28;20029;-70
2022/03/05 04:48:00;;;;;;;43.83;24.58;;;13.50;2201.60;;;;;;5065749;28;20130;-70
2022/03/05 04:50:26;;;;;;;39.95;22.40;;;13.40;2201.60;;;;;;5065533;28;20029;-71
2022/03/05 04:52:52;;;;;;;42.35;21.45;;;13.50;2201.60;;;;;;5069031;28;20533;-70
2022/03/05 04:55:17;;;;;;;49.53;24.23;;;13.40;2201.60;;;;;;5065257;28;20017;-71
2022/03/05 04:57:43;;;;;;;45.13;23.13;;;13.40;2201.60;;;;;;5059795;28;20380;-71
2022/03/05 05:00:12;;;;;;;46.50;22.75;;;13.40;2201.60;;;;;;5061822;28;20052;-71
2022/03/05 05:02:38;;;;;;;44.33;23.05;;;13.60;2201.60;;;;;;5069762;28;20028;-71
2022/03/05 05:05:05;;;;;;;51.97;24.25;;;13.70;2201.60;;;;;;5079307;28;20080;-71
2022/03/05 05:07:31;;;;;;;44.88;21.73;;;38.50;2201.60;;;;;;5065567;28;20483;-71
2022/03/05 05:09:57;;;;;;;44.58;26.05;;;38.50;2201.60;;;;;;5066449;28;20040;-70
2022/03/05 05:12:24;;;;;;;50.05;24.70;;;38.50;2201.60;;;;;;5070114;28;20025;-71
2022/03/05 05:14:50;;;;;;;49.83;24.92;;;38.50;2201.60;;;;;;5068223;28;20105;-71
2022/03/05 05:17:15;;;;;;;49.20;23.63;;;38.50;2201.60;;;;;;5062986;28;20433;-71
2022/03/05 05:19:41;;;;;;;43.50;21.05;;;38.50;2201.60;;;;;;5065934;28;20052;-71
2022/03/05 05:22:07;;;;;;;44.72;22.73;;;38.40;2201.60;;;;;;5060060;28;20032;-71
2022/03/05 05:24:36;;;;;;;54.03;26.67;;;13.70;2201.60;;;;;;5064129;28;20104;-71
2022/03/05 05:27:02;;;;;;;49.53;25.27;;;13.70;2201.60;;;;;;5066176;28;20048;-71
2022/03/05 05:29:28;;;;;;;51.25;25.20;;;13.60;2201.60;;;;;;5066844;28;20510;-71
2022/03/05 05:31:57;;;;;;;50.70;26.45;;;13.60;2201.60;;;;;;5062860;28;20100;-71
2022/03/05 05:34:23;;;;;;;56.22;27.52;;;13.50;2201.60;;;;;;5068306;28;20032;-71
2022/03/05 05:36:50;;;;;;;60.50;27.50;;;13.50;2201.60;;;;;;5062069;28;20035;-71
2022/03/05 05:39:16;;;;;;;51.90;25.27;;;13.50;2201.60;;;;;;5064504;28;20078;-71
2022/03/05 05:41:42;;;;;;;58.42;27.77;;;13.40;2201.60;;;;;;5059134;28;20029;-71
2022/03/05 05:44:11;;;;;;;47.50;27.10;;;13.40;2201.60;;;;;;5068401;28;20033;-72
2022/03/05 05:46:37;;;;;;;51.70;26.20;;;13.40;2201.60;;;;;;5060412;28;20022;-71
2022/03/05 05:49:03;;;;;;;56.65;26.08;;;13.30;2201.60;;;;;;5061198;28;20040;-72
2022/03/05 05:51:29;;;;;;;48.65;25.55;;;13.30;2201.60;;;;;;5062320;28;20034;-71
2022/03/05 05:53:56;;;;;;;47.20;25.85;;;13.20;2201.60;;;;;;5064084;28;20085;-71
2022/03/05 05:56:25;;;;;;;48.10;25.95;;;13.20;2201.60;;;;;;5063541;28;20391;-72
2022/03/05 05:58:55;;;;;;;53.75;26.00;;;13.10;2201.60;;;;;;5061961;28;20430;-71
2022/03/05 06:01:21;;;;;;;50.55;24.20;;;13.10;2201.60;;;;;;5063648;28;20059;-72
2022/03/05 06:03:48;;;;;;;48.15;24.15;;;13.00;2201.60;;;;;;5064395;28;20056;-72
2022/03/05 06:06:14;;;;;;;48.42;24.63;;;13.10;2201.60;;;;;;5063312;28;20495;-72
2022/03/05 06:08:40;;;;;;;50.95;26.40;;;13.00;2201.60;;;;;;5062938;28;20036;-72
2022/03/05 06:11:06;;;;;;;49.13;26.13;;;13.00;2201.60;;;;;;5065571;28;20025;-71
2022/03/05 06:13:32;;;;;;;48.38;25.33;;;12.90;2201.60;;;;;;5065324;28;20021;-71
2022/03/05 06:15:58;;;;;;;56.67;25.45;;;0.00;2201.60;;;;;;5067521;28;20029;-72
2022/03/05 06:18:26;;;;;;;47.92;25.67;;;0.10;2201.60;;;;;;5064791;28;20103;-71
2022/03/05 06:20:52;;;;;;;53.47;28.10;;;0.10;2201.60;;;;;;5065625;28;20020;-72
2022/03/05 06:23:27;;;;;;;58.70;31.60;;;0.20;2201.60;;;;;;5061716;28;20107;-72
2022/03/05 06:25:53;;;;;;;65.57;33.75;;;0.30;2201.60;;;;;;5062560;28;20021;-72
2022/03/05 06:28:19;;;;;;;63.42;31.75;;;0.40;2201.60;;;;;;5061789;28;20042;-71
2022/03/05 06:30:48;;;;;;;60.72;31.98;;;0.50;2201.60;;;;;;5061748;28;20024;-71
2022/03/05 06:33:13;;;;;;;67.13;30.85;;;0.60;2201.60;;;;;;5067146;28;20414;-72
2022/03/05 06:35:39;;;;;;;63.22;32.55;;;0.60;2201.60;;;;;;5061768;28;20094;-71
2022/03/05 06:38:05;;;;;;;57.05;27.95;;;0.70;2201.60;;;;;;5064923;28;20048;-72
2022/03/05 06:40:31;;;;;;;54.85;27.38;;;0.80;2201.60;;;;;;5061136;28;20469;-72
2022/03/05 06:42:57;;;;;;;47.90;23.75;;;0.80;2201.60;;;;;;5065064;28;20024;-71
2022/03/05 06:45:25;;;;;;;50.72;25.52;;;25.60;2201.60;;;;;;5067146;28;20029;-71
2022/03/05 06:47:51;;;;;;;41.97;23.15;;;25.60;2201.60;;;;;;5067486;28;20029;-71
2022/03/05 06:50:17;;;;;;;47.90;25.80;;;25.80;2201.60;;;;;;5059031;28;20021;-72
2022/03/05 06:52:42;;;;;;;48.85;25.75;;;25.80;2201.60;;;;;;5063469;28;20038;-71
2022/03/05 06:55:13;;;;;;;44.55;24.23;;;26.00;2201.60;;;;;;5062350;28;20037;-72
2022/03/05 06:57:39;;;;;;;48.72;24.75;;;26.00;2201.60;;;;;;5069378;28;20024;-72
2022/03/05 07:00:05;;;;;;;48.25;27.40;;;26.20;2201.60;;;;;;5064731;28;20391;-72
2022/03/05 07:02:31;;;;;;;51.50;26.50;;;26.30;2201.60;;;;;;5063350;28;20395;-72
2022/03/05 07:04:57;;;;;;;48.92;27.67;;;26.40;2201.60;;;;;;5062605;28;20025;-72
2022/03/05 07:07:23;;;;;;;49.10;25.83;;;26.50;2201.60;;;;;;5063810;28;20028;-72
2022/03/05 07:09:49;;;;;;;48.33;24.85;;;51.20;2227.20;;;;;;5072226;28;20851;-72
2022/03/05 07:12:24;;;;;;;47.05;25.10;;;51.30;2227.20;;;;;;5062416;28;20420;-72
2022/03/05 07:14:50;;;;;;;57.10;30.02;;;51.30;2227.20;;;;;;5088443;28;20025;-72
2022/03/05 07:17:19;;;;;;;53.22;26.00;;;51.50;2227.20;;;;;;5068269;28;20036;-72
2022/03/05 07:19:45;;;;;;;52.30;25.88;;;51.60;2227.20;;;;;;5068098;28;20021;-72
2022/03/05 07:22:11;;;;;;;54.45;30.05;;;51.80;2227.20;;;;;;5066431;28;20059;-72
2022/03/05 07:24:37;;;;;;;50.63;25.45;;;51.90;2227.20;;;;;;5063089;28;20025;-72
2022/03/05 07:27:04;;;;;;;45.00;27.02;;;52.00;2227.20;;;;;;5068055;28;20025;-72
2022/03/05 07:29:30;;;;;;;48.97;26.65;;;52.10;2227.20;;;;;;5065557;28;20554;-72
2022/03/05 07:31:56;;;;;;;48.35;25.73;;;76.80;2227.20;;;;;;5065386;28;20107;-72
2022/03/05 07:34:22;;;;;;;49.53;27.08;;;77.00;2227.20;;;;;;5067742;28;20036;-72
2022/03/05 07:36:48;;;;;;;49.20;25.83;;;77.20;2227.20;;;;;;5066948;28;20087;-72
2022/03/05 07:39:17;;;;;;;42.58;25.15;;;77.40;2227.20;;;;;;5067022;28;20036;-72
2022/03/05 07:41:43;;;;;;;39.80;21.58;;;77.60;2227.20;;;;;;5067262;28;20378;-73
2022/03/05 07:44:09;;;;;;;47.92;23.83;;;77.70;2227.20;;;;;;5065787;28;20170;-73
2022/03/05 07:46:38;;;;;;;47.72;23.70;;;102.40;2227.20;;;;;;5065402;28;20025;-72
2022/03/05 07:49:05;;;;;;;39.58;23.25;;;102.60;2227.20;;;;;;5068282;28;20107;-73
2022/03/05 07:51:32;;;;;;;40.95;23.13;;;102.80;2227.20;;;;;;5067139;28;20784;-72
2022/03/05 07:53:58;;;;;;;29.67;19.38;;;103.00;2227.20;;;;;;5066527;28;20047;-72
2022/03/05 07:56:24;;;;;;;41.75;22.17;;;103.10;2227.20;;;;;;5062999;28;20131;-73
2022/03/05 07:58:55;;;;;;;28.95;18.88;;;103.20;2227.20;;;;;;5064231;28;20037;-73
2022/03/05 08:01:21;;;;;;;39.42;20.30;;;128.00;2252.80;;;;;;5080412;28;20548;-73
2022/03/05 08:03:46;;;;;;;38.05;21.20;;;128.20;2252.80;;;;;;5071725;28;20111;-72
2022/03/05 08:06:12;;;;;;;35.40;21.38;;;128.50;2252.80;;;;;;5060862;28;20029;-73
2022/03/05 08:08:41;;;;;;;32.30;21.15;;;128.50;2252.80;;;;;;5056970;28;20063;-73
2022/03/05 08:11:07;;;;;;;36.20;21.88;;;128.50;2252.80;;;;;;5066703;28;20025;-73
2022/03/05 08:13:33;;;;;;;37.72;22.67;;;128.50;2252.80;;;;;;5063660;28;20059;-73
2022/03/05 08:15:59;;;;;;;38.97;21.13;;;128.80;2252.80;;;;;;5059062;28;20033;-73
2022/03/05 08:18:25;;;;;;;40.53;22.20;;;128.70;2252.80;;;;;;5061668;28;20029;-74
2022/03/05 08:20:51;;;;;;;38.60;23.08;;;128.90;2252.80;;;;;;5063486;28;20557;-75
2022/03/05 08:23:17;;;;;;;40.03;22.17;;;153.70;2252.80;;;;;;5062701;28;20020;-74
2022/03/05 08:25:42;;;;;;;35.00;22.17;;;153.90;2252.80;;;;;;5060533;28;20032;-74
2022/03/05 08:28:08;;;;;;;39.42;20.33;;;153.90;2252.80;;;;;;5066541;28;20056;-73
2022/03/05 08:30:37;;;;;;;43.55;25.15;;;154.20;2252.80;;;;;;5068911;28;20077;-74
2022/03/05 08:33:05;;;;;;;32.60;21.27;;;154.40;2252.80;;;;;;5067762;28;20502;-74
2022/03/05 08:35:31;;;;;;;35.30;22.48;;;179.20;2252.80;;;;;;5063745;28;20063;-72
2022/03/05 08:37:57;;;;;;;32.03;20.20;;;179.40;2252.80;;;;;;5066768;28;20049;-73
2022/03/05 08:40:23;;;;;;;34.13;18.55;;;179.20;2252.80;;;;;;5066582;28;20059;-73
2022/03/05 08:42:55;;;;;;;28.42;18.10;;;179.50;2124.80;;;;;;5064710;28;20036;-72
2022/03/05 08:45:21;;;;;;;34.58;19.17;;;179.60;2099.20;;;;;;5061963;28;20027;-73
2022/03/05 08:47:47;;;;;;;30.77;17.77;;;179.60;2124.80;;;;;;5065715;28;20384;-73
2022/03/05 08:50:16;;;;;;;27.77;17.27;;;179.80;2073.60;;;;;;5064510;28;20352;-72
2022/03/05 08:52:42;;;;;;;26.42;16.38;;;180.00;1945.60;;;;;;5067199;28;20040;-72
2022/03/05 08:55:11;;;;;;;30.15;16.95;;;204.80;1945.60;;;;;;5069624;28;20063;-72
2022/03/05 08:57:37;;;;;;;26.50;16.73;;;179.90;1945.60;;;;;;5062998;28;20174;-72
2022/03/05 09:00:08;;;;;;;24.88;17.05;;;204.80;1894.40;;;;;;5065834;28;20527;-72
2022/03/05 09:02:34;;;;;;;26.80;17.20;;;204.90;1920.00;;;;;;5065544;28;20070;-72
2022/03/05 09:05:06;;;;;;;25.80;15.18;;;205.20;1843.20;;;;;;5068376;28;20393;-73
2022/03/05 09:07:35;;;;;;;28.00;16.63;;;205.20;1843.20;;;;;;5067169;28;20025;-73
2022/03/05 09:10:00;;;;;;;29.20;17.20;;;205.40;1843.20;;;;;;5061713;28;20021;-73
2022/03/05 09:12:26;;;;;;;28.08;18.10;;;205.40;1843.20;;;;;;5065516;28;20032;-72
2022/03/05 09:14:52;;;;;;;26.98;17.95;;;230.40;1792.00;;;;;;5066563;28;20115;-73
2022/03/05 09:17:18;;;;;;;33.33;18.50;;;230.40;1792.00;;;;;;5067147;28;20032;-73
2022/03/05 09:19:43;;;;;;;31.58;18.38;;;230.50;1792.00;;;;;;5060833;28;20027;-72
2022/03/05 09:22:10;;;;;;;28.25;17.05;;;230.70;1740.80;;;;;;5065753;28;20033;-73
2022/03/05 09:24:37;;;;;;;28.90;17.30;;;230.90;1740.80;;;;;;5065546;28;20072;-72
2022/03/05 09:27:06;;;;;;;30.80;17.88;;;231.10;1689.60;;;;;;5064240;28;20525;-73
2022/03/05 09:29:32;;;;;;;30.15;18.27;;;231.20;1689.60;;;;;;5064174;28;20487;-73
2022/03/05 09:31:58;;;;;;;28.67;19.27;;;256.20;1638.40;;;;;;5062970;28;20020;-72
2022/03/05 09:34:26;;;;;;;33.70;20.83;;;256.40;1612.80;;;;;;5063965;28;20039;-72
2022/03/05 09:36:52;;;;;;;29.27;18.17;;;256.40;1638.40;;;;;;5059657;28;20021;-73
2022/03/05 09:39:19;;;;;;;32.88;19.23;;;256.40;1587.20;;;;;;5062990;28;20048;-74
2022/03/05 09:41:47;;;;;;;31.17;19.27;;;256.80;1561.60;;;;;;5062004;28;20032;-73
2022/03/05 09:44:13;;;;;;;27.92;17.92;;;256.50;1561.60;;;;;;5063851;28;20048;-73
2022/03/05 09:46:41;;;;;;;28.48;17.55;;;256.90;1536.00;;;;;;5062164;28;20056;-73
2022/03/05 09:49:08;;;;;;;29.15;17.45;;;256.70;1536.00;;;;;;5064608;28;20457;-73
2022/03/05 09:51:34;;;;;;;30.58;18.33;;;256.60;1536.00;;;;;;5060995;28;20079;-73
2022/03/05 09:54:01;;;;;;;30.23;18.38;;;256.40;1536.00;;;;;;5081153;28;20067;-73
2022/03/05 09:56:28;;;;;;;27.77;16.73;;;256.60;1561.60;;;;;;5062158;28;20052;-73
2022/03/05 09:58:55;;;;;;;30.52;18.02;;;256.70;1536.00;;;;;;5062864;28;20056;-73
2022/03/05 10:01:20;;;;;;;26.95;16.60;;;256.90;1536.00;;;;;;5063122;28;20488;-73
2022/03/05 10:03:49;;;;;;;28.30;17.45;;;282.00;1536.00;;;;;;5060168;28;20067;-74
2022/03/05 10:06:41;;;;;;;32.28;19.20;;;282.30;1484.80;;;;;;5062789;28;20033;-73
2022/03/05 10:09:22;;;;;;;25.77;16.77;;;307.70;1484.80;;;;;;5059648;28;20048;-74
2022/03/05 10:11:48;;;;;;;28.00;18.70;;;307.60;1459.20;;;;;;5062142;28;20028;-74
2022/03/05 10:14:15;;;;;;;28.83;18.08;;;308.00;1459.20;;;;;;5064642;28;20036;-73
2022/03/05 10:16:41;;;;;;;27.70;18.67;;;307.90;1433.60;;;;;;5061679;28;20027;-73
2022/03/05 10:19:28;;;;;;;27.98;18.65;;;308.00;1459.20;;;;;;5062598;28;20022;-73
2022/03/05 10:21:57;;;;;;;27.13;17.98;;;307.70;1433.60;;;;;;5080185;28;20033;-73
2022/03/05 10:24:37;;;;;;;34.70;20.80;;;307.30;1459.20;;;;;;5051353;28;20032;-74
2022/03/05 10:27:05;;;;;;;29.17;18.08;;;307.20;1484.80;;;;;;5059224;28;20048;-73
2022/03/05 10:29:35;;;;;;;32.28;21.20;;;307.50;1459.20;;;;;;5052140;28;20036;-74
2022/03/05 10:32:11;;;;;;;30.02;19.45;;;333.00;1408.00;;;;;;5065170;28;20074;-74
2022/03/05 10:34:52;;;;;;;34.92;20.83;;;333.20;1408.00;;;;;;5078849;28;20071;-74
2022/03/05 10:37:23;;;;;;;32.10;20.65;;;333.70;1382.40;;;;;;5058257;28;20021;-74
2022/03/05 10:39:52;;;;;;;27.38;20.08;;;358.40;1356.80;;;;;;5058925;28;20028;-77
2022/03/05 10:42:49;;;;;;;32.63;20.10;;;358.50;1356.80;;;;;;5059746;28;20567;-74
2022/03/05 10:45:18;;;;;;;32.58;19.80;;;333.10;1408.00;;;;;;5074730;28;20021;-74
2022/03/05 10:47:46;;;;;;;30.75;20.40;;;333.30;1382.40;;;;;;5061916;28;20021;-74
2022/03/05 10:50:15;;;;;;;33.53;21.63;;;333.10;1408.00;;;;;;5060083;28;20087;-74
2022/03/05 10:52:49;;;;;;;31.23;21.63;;;333.40;1382.40;;;;;;5063274;28;20040;-74
2022/03/05 10:55:17;;;;;;;35.50;20.98;;;358.40;1331.20;;;;;;5067758;28;20032;-73
2022/03/05 10:58:17;;;;;;;25.13;19.00;;;333.70;1331.20;;;;;;5066309;28;20032;-73
2022/03/05 11:00:53;;;;;;;33.92;20.75;;;333.60;1331.20;;;;;;5066258;28;20499;-73
2022/03/05 11:03:23;;;;;;;29.80;20.50;;;358.50;1331.20;;;;;;5070411;28;20039;-73
2022/03/05 11:05:49;;;;;;;32.00;21.30;;;358.90;1331.20;;;;;;5068192;28;20039;-73
2022/03/05 11:08:16;;;;;;;31.48;20.98;;;384.20;1280.00;;;;;;5070207;28;20020;-74
2022/03/05 11:10:42;;;;;;;32.55;20.52;;;332.90;1356.80;;;;;;5064866;28;20028;-73
2022/03/05 11:13:08;;;;;;;29.23;19.05;;;282.20;1408.00;;;;;;5067501;28;20110;-74
2022/03/05 11:15:34;;;;;;;30.23;19.27;;;281.80;1433.60;;;;;;5069608;28;20029;-73
2022/03/05 11:18:13;;;;;;;29.58;20.02;;;307.80;1382.40;;;;;;5066277;28;20570;-73
2022/03/05 11:20:47;;;;;;;33.58;22.60;;;358.40;1305.60;;;;;;5064467;28;20036;-73
2022/03/05 11:23:14;;;;;;;30.25;19.15;;;358.50;1331.20;;;;;;5062202;28;20021;-73
2022/03/05 11:25:40;;;;;;;32.30;20.83;;;384.00;1254.40;;;;;;5069913;28;20028;-73
2022/03/05 11:28:12;;;;;;;29.48;21.65;;;384.30;1228.80;;;;;;5067827;28;20052;-73
2022/03/05 11:30:44;;;;;;;30.50;19.83;;;333.70;1331.20;;;;;;5067127;28;20472;-73
2022/03/05 11:33:21;;;;;;;30.48;19.27;;;307.90;1331.20;;;;;;5068378;28;20033;-73
2022/03/05 11:35:48;;;;;;;29.63;18.98;;;282.30;1382.40;;;;;;5068671;28;20039;-73
2022/03/05 11:38:37;;;;;;;27.50;18.92;;;281.70;1382.40;;;;;;5069617;28;20056;-74
2022/03/05 11:41:26;;;;;;;34.15;20.27;;;307.20;1356.80;;;;;;5066049;28;20024;-74
2022/03/05 11:43:52;;;;;;;33.35;22.15;;;308.00;1331.20;;;;;;5068651;28;20063;-74
2022/03/05 11:46:25;;;;;;;27.05;17.33;;;333.10;1331.20;;;;;;5070202;28;20441;-73
2022/03/05 11:49:04;;;;;;;27.77;19.05;;;358.90;1280.00;;;;;;5069878;28;20471;-73
2022/03/05 11:51:30;;;;;;;30.05;19.02;;;358.70;1305.60;;;;;;5060834;28;20295;-73
2022/03/05 11:54:25;;;;;;;32.95;20.00;;;332.80;1356.80;;;;;;5070589;28;20040;-73
2022/03/05 11:57:13;;;;;;;31.42;20.02;;;282.20;1382.40;;;;;;5011366;28;20030;-74
2022/03/05 11:59:50;;;;;;;26.95;18.90;;;256.60;1408.00;;;;;;4987341;28;20049;-73
2022/03/05 12:02:37;;;;;;;27.40;19.52;;;281.70;1433.60;;;;;;5009537;28;20092;-73
2022/03/05 12:05:02;;;;;;;;;;;332.80;1331.20;;;;;;5010452;28;20041;-73
2022/03/05 12:07:44;;;;;;;26.80;17.67;;;333.60;1280.00;;;;;;4994695;28;19909;-73
2022/03/05 12:10:38;;;;;;;25.17;18.35;;;384.20;1177.60;;;;;;5008405;28;20164;-73